METAR Data

Data at: 0719 UTC 28 Sep 2022

METAR for:KLEW (Auburn-Lewiston Muni, ME, US)
Text:KLEW 280656Z AUTO 00000KT 10SM CLR 07/07 A2988 RMK AO2 SLP124 T00720072
Temperature: 7.2°C ( 45°F)
Dewpoint: 7.2°C ( 45°F) [RH = 100%]
Pressure (altimeter):29.88 inches Hg (1011.9 mb) [Sea level pressure: 1012.4 mb]
Winds:calm
Visibility:10 or more sm (16+ km)
Ceiling:at least 12,000 feet AGL
Clouds:sky clear below 12,000 feet AGL
QC Flag:automated observation with no human augmentation